aviador You're here:

KSPA Decoded Metar

SPARTANBURG VOR in SC, USA
Report Time2017-10-17 20:15:00
UTC Time2017-10-17 20:16:54
Flight Rules vfr VFR
Wind060° at 04 kt
W.Decomp.*RWY 05: 3.9 kt HW 1.0 kt RCW
W.Rank060° ranks 12
Current wind is below 060° avg. (5.1)
Visibility9999 m
Phenomena:N/A
Clouds:N/A
Expected CloudBase > 6,400 ft AGL from Temp-Dew spread
CeilingNone
Temp18°C (ISA +5)
Dew Point02°C (34% RH)
AAT14.9°C
QNH1025 hPa
Density Alt1,276 ft
Elevation994 ft
Report Wrong Elevation
Raw Report
KSPA 172015Z AUTO 06004KT 10SM CLR 18/02 A3028 RMK AO2=

Extra information for KSPA:More info

Metar Taf Metar & Taf Last 4 Metars F.Rules Stats Wind Profile Meteogram Temp Stats Airport Information Weather charts Add Link Nearby VenuesMetar ALERT Operation Metar Decoded Social comments

AIRNAV info for KSPA